Time,TemperatureF,DewpointF,PressureIn,WindDirection,WindDirectionDegrees,WindSpeedMPH,WindSpeedGustMPH,Humidity,HourlyPrecipIn,Conditions,Clouds,dailyrainin,SoftwareType,DateUTC
2013-03-13 00:00:00,49.5,44.8,30.24,ESE,109,0.9,0.0,83,0.00,,,0.00,WeatherCatV1.15B25,2013-03-13 07:00:00,
2013-03-13 00:03:00,51.1,47.6,30.22,SW,225,7.2,7.2,88,0.00,,,0.00,LWC V2.11 B50,2013-03-13 07:03:00,
2013-03-13 00:05:00,49.5,44.8,30.24,ESE,109,0.9,0.0,83,0.00,,,0.00,WeatherCatV1.15B25,2013-03-13 07:05:00,
2013-03-13 00:08:00,51.1,47.6,30.23,South,180,4.9,4.9,88,0.00,,,0.00,LWC V2.11 B50,2013-03-13 07:08:00,
2013-03-13 00:10:00,49.5,44.8,30.24,ESE,109,0.9,0.0,83,0.00,,,0.00,WeatherCatV1.15B25,2013-03-13 07:10:00,
2013-03-13 00:13:00,51.3,47.8,30.23,South,180,2.9,2.9,88,0.00,,,0.00,LWC V2.11 B50,2013-03-13 07:13:00,
2013-03-13 00:15:00,49.5,44.8,30.24,ESE,109,0.9,0.0,83,0.00,,,0.00,WeatherCatV1.15B25,2013-03-13 07:15:00,
2013-03-13 00:18:00,51.3,47.8,30.24,SW,225,7.4,7.4,88,0.00,,,0.00,LWC V2.11 B50,2013-03-13 07:18:00,
2013-03-13 00:20:00,49.5,44.8,30.24,ESE,109,0.9,0.0,83,0.00,,,0.00,WeatherCatV1.15B25,2013-03-13 07:20:00,
2013-03-13 00:24:00,51.3,47.8,30.23,West,270,6.5,7.4,88,0.00,,,0.00,LWC V2.11 B50,2013-03-13 07:24:00,
2013-03-13 00:25:00,49.5,44.8,30.24,ESE,109,0.9,0.0,83,0.00,,,0.00,WeatherCatV1.15B25,2013-03-13 07:25:00,
2013-03-13 00:29:00,51.3,47.8,30.23,SSW,202,4.9,4.9,88,0.00,,,0.00,LWC V2.11 B50,2013-03-13 07:29:00,
2013-03-13 00:30:00,49.5,44.8,30.24,ESE,109,0.9,0.0,83,0.00,,,0.00,WeatherCatV1.15B25,2013-03-13 07:30:00,
2013-03-13 00:34:00,51.3,47.8,30.23,WSW,247,7.6,7.6,88,0.00,,,0.00,LWC V2.11 B50,2013-03-13 07:34:00,
2013-03-13 00:35:00,49.5,44.8,30.24,ESE,109,0.9,0.0,83,0.00,,,0.00,WeatherCatV1.15B25,2013-03-13 07:35:00,
2013-03-13 00:39:00,51.1,47.6,30.24,SW,225,6.9,6.9,88,0.00,,,0.00,LWC V2.11 B50,2013-03-13 07:39:00,
2013-03-13 00:40:00,49.5,44.8,30.24,ESE,109,0.9,0.0,83,0.00,,,0.00,WeatherCatV1.15B25,2013-03-13 07:40:00,
2013-03-13 00:44:00,51.3,47.8,30.24,SW,225,7.6,7.6,88,0.00,,,0.00,LWC V2.11 B50,2013-03-13 07:44:00,
2013-03-13 00:45:00,49.5,44.8,30.24,ESE,109,0.9,0.0,83,0.00,,,0.00,WeatherCatV1.15B25,2013-03-13 07:45:00,
2013-03-13 00:49:00,51.1,47.6,30.24,WSW,247,4.5,6.0,88,0.00,,,0.00,LWC V2.11 B50,2013-03-13 07:49:00,
2013-03-13 00:50:00,49.5,44.8,30.24,ESE,109,0.9,0.0,83,0.00,,,0.00,WeatherCatV1.15B25,2013-03-13 07:50:00,
2013-03-13 00:54:00,51.1,47.6,30.23,WSW,247,3.8,3.8,88,0.00,,,0.00,LWC V2.11 B50,2013-03-13 07:54:00,
2013-03-13 00:55:00,49.5,44.8,30.24,ESE,109,0.9,0.0,83,0.00,,,0.00,WeatherCatV1.15B25,2013-03-13 07:55:00,
2013-03-13 00:59:00,51.1,47.6,30.24,SSW,202,7.6,7.6,88,0.00,,,0.00,LWC V2.11 B50,2013-03-13 07:59:00,
2013-03-13 01:00:00,49.5,44.8,30.24,ESE,109,0.9,0.0,83,0.00,,,0.00,WeatherCatV1.15B25,2013-03-13 08:00:00,
2013-03-13 01:04:00,51.1,47.6,30.24,SSW,202,3.8,3.8,88,0.00,,,0.00,LWC V2.11 B50,2013-03-13 08:04:00,
2013-03-13 01:05:00,49.5,44.8,30.24,ESE,109,0.9,0.0,83,0.00,,,0.00,WeatherCatV1.15B25,2013-03-13 08:05:00,
2013-03-13 01:09:00,51.1,47.6,30.24,WSW,247,3.6,3.6,88,0.00,,,0.00,LWC V2.11 B50,2013-03-13 08:09:00,
2013-03-13 01:10:00,49.5,44.8,30.24,ESE,109,0.9,0.0,83,0.00,,,0.00,WeatherCatV1.15B25,2013-03-13 08:10:00,
2013-03-13 01:14:00,50.9,47.4,30.23,SW,225,6.9,6.9,88,0.00,,,0.00,LWC V2.11 B50,2013-03-13 08:14:00,
2013-03-13 01:15:00,49.5,44.8,30.24,ESE,109,0.9,0.0,83,0.00,,,0.00,WeatherCatV1.15B25,2013-03-13 08:15:00,
2013-03-13 01:19:00,50.9,47.4,30.24,WSW,247,5.4,5.4,88,0.00,,,0.00,LWC V2.11 B50,2013-03-13 08:19:00,
2013-03-13 01:20:00,49.5,44.8,30.24,ESE,109,0.9,0.0,83,0.00,,,0.00,WeatherCatV1.15B25,2013-03-13 08:20:00,
2013-03-13 01:24:00,50.9,47.4,30.24,SW,225,5.1,5.1,88,0.00,,,0.00,LWC V2.11 B50,2013-03-13 08:24:00,
2013-03-13 01:25:00,49.5,44.8,30.24,ESE,109,0.9,0.0,83,0.00,,,0.00,WeatherCatV1.15B25,2013-03-13 08:25:00,
2013-03-13 01:29:00,50.7,47.4,30.24,WSW,247,4.2,6.0,89,0.00,,,0.00,LWC V2.11 B50,2013-03-13 08:29:00,
2013-03-13 01:30:00,49.5,44.8,30.24,ESE,109,0.9,0.0,83,0.00,,,0.00,WeatherCatV1.15B25,2013-03-13 08:30:00,
2013-03-13 01:34:00,50.7,47.5,30.24,SE,135,2.0,5.1,89,0.00,,,0.00,LWC V2.11 B50,2013-03-13 08:34:00,
2013-03-13 01:35:00,49.5,44.8,30.24,ESE,109,0.9,0.0,83,0.00,,,0.00,WeatherCatV1.15B25,2013-03-13 08:35:00,
2013-03-13 01:39:00,50.7,47.5,30.24,SSW,202,5.4,5.4,89,0.00,,,0.00,LWC V2.11 B50,2013-03-13 08:39:00,
2013-03-13 01:40:00,49.5,44.8,30.24,ESE,109,0.9,0.0,83,0.00,,,0.00,WeatherCatV1.15B25,2013-03-13 08:40:00,
2013-03-13 01:45:00,50.7,47.5,30.23,SW,225,6.7,6.7,89,0.00,,,0.00,LWC V2.11 B50,2013-03-13 08:45:00,
2013-03-13 01:50:00,50.7,47.5,30.23,WSW,247,6.7,6.7,89,0.00,,,0.00,LWC V2.11 B50,2013-03-13 08:50:00,
2013-03-13 01:55:00,50.7,47.5,30.23,SSW,202,9.2,9.2,89,0.00,,,0.00,LWC V2.11 B50,2013-03-13 08:55:00,
2013-03-13 02:00:00,50.7,47.5,30.23,WSW,247,5.1,5.8,89,0.00,,,0.00,LWC V2.11 B50,2013-03-13 09:00:00,
2013-03-13 02:05:00,50.7,47.5,30.24,SSW,202,4.7,4.7,89,0.00,,,0.00,LWC V2.11 B50,2013-03-13 09:05:00,
2013-03-13 02:10:00,50.7,47.5,30.24,SW,225,6.3,6.3,89,0.00,,,0.00,LWC V2.11 B50,2013-03-13 09:10:00,
2013-03-13 02:15:00,50.7,47.5,30.24,SSW,202,4.2,5.4,89,0.00,,,0.00,LWC V2.11 B50,2013-03-13 09:15:00,
2013-03-13 02:20:00,50.7,47.5,30.25,SW,225,2.0,2.0,89,0.00,,,0.00,LWC V2.11 B50,2013-03-13 09:20:00,
2013-03-13 02:25:00,50.7,47.5,30.25,WSW,247,4.7,4.7,89,0.00,,,0.00,LWC V2.11 B50,2013-03-13 09:25:00,
2013-03-13 02:30:00,50.7,47.5,30.24,WSW,247,3.4,3.4,89,0.00,,,0.00,LWC V2.11 B50,2013-03-13 09:30:00,
2013-03-13 02:35:00,50.7,47.5,30.25,West,270,4.5,4.5,89,0.00,,,0.00,LWC V2.11 B50,2013-03-13 09:35:00,
2013-03-13 02:40:00,50.7,47.5,30.25,WSW,247,4.0,4.0,89,0.00,,,0.00,LWC V2.11 B50,2013-03-13 09:40:00,
2013-03-13 02:45:00,50.7,47.5,30.26,WSW,247,6.5,6.5,89,0.00,,,0.00,LWC V2.11 B50,2013-03-13 09:45:00,
2013-03-13 02:50:00,50.7,47.5,30.27,WSW,247,5.1,5.1,89,0.00,,,0.00,LWC V2.11 B50,2013-03-13 09:50:00,
2013-03-13 02:55:00,49.5,44.8,30.24,ESE,109,0.9,0.0,83,0.00,,,0.00,WeatherCatV1.15B25,2013-03-13 09:55:00,
2013-03-13 02:56:00,50.7,47.5,30.27,WSW,247,6.7,6.7,89,0.00,,,0.00,LWC V2.11 B50,2013-03-13 09:56:00,
2013-03-13 03:00:00,49.5,44.8,30.24,ESE,109,0.9,0.0,83,0.00,,,0.00,WeatherCatV1.15B25,2013-03-13 10:00:00,
2013-03-13 03:01:00,50.7,47.5,30.27,WSW,247,3.6,3.6,89,0.00,,,0.00,LWC V2.11 B50,2013-03-13 10:01:00,
2013-03-13 03:05:00,49.5,44.8,30.24,ESE,109,0.9,0.0,83,0.00,,,0.00,WeatherCatV1.15B25,2013-03-13 10:05:00,
2013-03-13 03:06:00,50.9,47.7,30.28,SSW,202,6.9,6.9,89,0.00,,,0.00,LWC V2.11 B50,2013-03-13 10:06:00,
2013-03-13 03:10:00,49.5,44.8,30.24,ESE,109,0.9,0.0,83,0.00,,,0.00,WeatherCatV1.15B25,2013-03-13 10:10:00,
2013-03-13 03:11:00,50.9,47.7,30.28,SSW,202,4.9,6.0,89,0.00,,,0.00,LWC V2.11 B50,2013-03-13 10:11:00,
2013-03-13 03:15:00,49.5,44.8,30.24,ESE,109,0.9,0.0,83,0.00,,,0.00,WeatherCatV1.15B25,2013-03-13 10:15:00,
2013-03-13 03:16:00,50.9,47.7,30.27,SSW,202,6.0,6.0,89,0.00,,,0.00,LWC V2.11 B50,2013-03-13 10:16:00,
2013-03-13 03:20:00,49.5,44.8,30.24,ESE,109,0.9,0.0,83,0.00,,,0.00,WeatherCatV1.15B25,2013-03-13 10:20:00,
2013-03-13 03:21:00,50.9,47.7,30.28,SSW,202,11.4,11.4,89,0.00,,,0.00,LWC V2.11 B50,2013-03-13 10:21:00,
2013-03-13 03:25:00,49.5,44.8,30.24,ESE,109,0.9,0.0,83,0.00,,,0.00,WeatherCatV1.15B25,2013-03-13 10:25:00,
2013-03-13 03:26:00,50.9,47.7,30.28,SSW,202,3.8,3.8,89,0.00,,,0.00,LWC V2.11 B50,2013-03-13 10:26:00,
2013-03-13 03:30:00,49.5,44.8,30.24,ESE,109,0.9,0.0,83,0.00,,,0.00,WeatherCatV1.15B25,2013-03-13 10:30:00,
2013-03-13 03:31:00,50.9,47.7,30.28,SSW,202,6.7,6.7,89,0.00,,,0.00,LWC V2.11 B50,2013-03-13 10:31:00,
2013-03-13 03:35:00,49.5,44.8,30.24,ESE,109,0.9,0.0,83,0.00,,,0.00,WeatherCatV1.15B25,2013-03-13 10:35:00,
2013-03-13 03:36:00,50.9,47.7,30.28,SSW,202,6.3,6.3,89,0.00,,,0.00,LWC V2.11 B50,2013-03-13 10:36:00,
2013-03-13 03:40:00,49.5,44.8,30.24,ESE,109,0.9,0.0,83,0.00,,,0.00,WeatherCatV1.15B25,2013-03-13 10:40:00,
2013-03-13 03:41:00,50.7,47.5,30.28,WSW,247,4.5,6.3,89,0.00,,,0.00,LWC V2.11 B50,2013-03-13 10:41:00,
2013-03-13 03:45:00,49.5,44.8,30.24,ESE,109,0.9,0.0,83,0.00,,,0.00,WeatherCatV1.15B25,2013-03-13 10:45:00,
2013-03-13 03:46:00,50.9,47.7,30.29,SSW,202,5.6,5.6,89,0.00,,,0.00,LWC V2.11 B50,2013-03-13 10:46:00,
2013-03-13 03:50:00,49.5,44.8,30.24,ESE,109,0.9,0.0,83,0.00,,,0.00,WeatherCatV1.15B25,2013-03-13 10:50:00,
2013-03-13 03:51:00,50.9,48.0,30.29,SW,225,7.6,7.6,90,0.00,,,0.00,LWC V2.11 B50,2013-03-13 10:51:00,
2013-03-13 03:55:00,49.5,44.8,30.24,ESE,109,0.9,0.0,83,0.00,,,0.00,WeatherCatV1.15B25,2013-03-13 10:55:00,
2013-03-13 03:56:00,50.7,47.8,30.30,SW,225,7.2,7.2,90,0.00,,,0.00,LWC V2.11 B50,2013-03-13 10:56:00,
2013-03-13 04:00:00,49.5,44.8,30.24,ESE,109,0.9,0.0,83,0.00,,,0.00,WeatherCatV1.15B25,2013-03-13 11:00:00,
2013-03-13 04:02:00,50.7,47.8,30.29,SW,225,6.0,6.0,90,0.00,,,0.00,LWC V2.11 B50,2013-03-13 11:02:00,
2013-03-13 04:05:00,49.5,44.8,30.24,ESE,109,0.9,0.0,83,0.00,,,0.00,WeatherCatV1.15B25,2013-03-13 11:05:00,
2013-03-13 04:07:00,50.7,47.8,30.29,SW,225,4.2,4.2,90,0.00,,,0.00,LWC V2.11 B50,2013-03-13 11:07:00,
2013-03-13 04:10:00,49.5,44.8,30.24,ESE,109,0.9,0.0,83,0.00,,,0.00,WeatherCatV1.15B25,2013-03-13 11:10:00,
2013-03-13 04:12:00,50.7,47.8,30.29,SW,225,5.8,9.2,90,0.00,,,0.00,LWC V2.11 B50,2013-03-13 11:12:00,
2013-03-13 04:15:00,49.5,44.8,30.24,ESE,109,0.9,0.0,83,0.00,,,0.00,WeatherCatV1.15B25,2013-03-13 11:15:00,
2013-03-13 04:17:00,50.7,47.8,30.29,SW,225,3.8,4.5,90,0.00,,,0.00,LWC V2.11 B50,2013-03-13 11:17:00,
2013-03-13 04:20:00,49.5,44.8,30.24,ESE,109,0.9,0.0,83,0.00,,,0.00,WeatherCatV1.15B25,2013-03-13 11:20:00,
2013-03-13 04:22:00,50.7,47.8,30.28,SSW,202,7.6,7.6,90,0.00,,,0.00,LWC V2.11 B50,2013-03-13 11:22:00,
2013-03-13 04:25:00,49.5,44.8,30.24,ESE,109,0.9,0.0,83,0.00,,,0.00,WeatherCatV1.15B25,2013-03-13 11:25:00,
2013-03-13 04:27:00,50.7,47.8,30.28,WSW,247,6.9,6.9,90,0.00,,,0.00,LWC V2.11 B50,2013-03-13 11:27:00,
2013-03-13 04:30:00,49.5,44.8,30.24,ESE,109,0.9,0.0,83,0.00,,,0.00,WeatherCatV1.15B25,2013-03-13 11:30:00,
2013-03-13 04:32:00,50.7,47.8,30.28,SSW,202,10.3,10.3,90,0.00,,,0.00,LWC V2.11 B50,2013-03-13 11:32:00,
2013-03-13 04:35:00,49.5,44.8,30.24,ESE,109,0.9,0.0,83,0.00,,,0.00,WeatherCatV1.15B25,2013-03-13 11:35:00,
2013-03-13 04:37:00,50.7,47.8,30.29,SW,225,5.4,8.5,90,0.00,,,0.00,LWC V2.11 B50,2013-03-13 11:37:00,
2013-03-13 04:40:00,49.5,44.8,30.24,ESE,109,0.9,0.0,83,0.00,,,0.00,WeatherCatV1.15B25,2013-03-13 11:40:00,
2013-03-13 04:42:00,50.7,47.8,30.28,South,180,7.8,7.8,90,0.00,,,0.00,LWC V2.11 B50,2013-03-13 11:42:00,
2013-03-13 04:45:00,49.5,44.8,30.24,ESE,109,0.9,0.0,83,0.00,,,0.00,WeatherCatV1.15B25,2013-03-13 11:45:00,
2013-03-13 04:47:00,50.7,47.8,30.29,SW,225,8.3,8.3,90,0.00,,,0.00,LWC V2.11 B50,2013-03-13 11:47:00,
2013-03-13 04:50:00,49.5,44.8,30.24,ESE,109,0.9,0.0,83,0.00,,,0.00,WeatherCatV1.15B25,2013-03-13 11:50:00,
2013-03-13 04:52:00,50.7,47.8,30.29,SW,225,7.4,7.4,90,0.00,,,0.00,LWC V2.11 B50,2013-03-13 11:52:00,
2013-03-13 04:55:00,49.5,44.8,30.24,ESE,109,0.9,0.0,83,0.00,,,0.00,WeatherCatV1.15B25,2013-03-13 11:55:00,
2013-03-13 04:57:00,50.7,47.8,30.29,SSW,202,7.2,7.2,90,0.00,,,0.00,LWC V2.11 B50,2013-03-13 11:57:00,
2013-03-13 05:00:00,49.5,44.8,30.24,ESE,109,0.9,0.0,83,0.00,,,0.00,WeatherCatV1.15B25,2013-03-13 12:00:00,
2013-03-13 05:02:00,50.7,47.8,30.29,SW,225,6.0,7.6,90,0.00,,,0.00,LWC V2.11 B50,2013-03-13 12:02:00,
2013-03-13 05:05:00,49.5,44.8,30.24,ESE,109,0.9,0.0,83,0.00,,,0.00,WeatherCatV1.15B25,2013-03-13 12:05:00,
2013-03-13 05:07:00,50.7,47.8,30.29,WSW,247,5.8,5.8,90,0.00,,,0.00,LWC V2.11 B50,2013-03-13 12:07:00,
2013-03-13 05:10:00,49.5,44.8,30.24,ESE,109,0.9,0.0,83,0.00,,,0.00,WeatherCatV1.15B25,2013-03-13 12:10:00,
2013-03-13 05:13:00,50.5,47.8,30.29,SW,225,7.2,7.2,90,0.00,,,0.00,LWC V2.11 B50,2013-03-13 12:13:00,
2013-03-13 05:15:00,49.5,44.8,30.24,ESE,109,0.9,0.0,83,0.00,,,0.00,WeatherCatV1.15B25,2013-03-13 12:15:00,
2013-03-13 05:18:00,50.7,47.8,30.29,SW,225,6.0,8.9,90,0.00,,,0.00,LWC V2.11 B50,2013-03-13 12:18:00,
2013-03-13 05:20:00,49.5,44.8,30.24,ESE,109,0.9,0.0,83,0.00,,,0.00,WeatherCatV1.15B25,2013-03-13 12:20:00,
2013-03-13 05:23:00,50.7,47.8,30.29,SW,225,7.8,7.8,90,0.00,,,0.00,LWC V2.11 B50,2013-03-13 12:23:00,
2013-03-13 05:25:00,49.5,44.8,30.24,ESE,109,0.9,0.0,83,0.00,,,0.00,WeatherCatV1.15B25,2013-03-13 12:25:00,
2013-03-13 05:28:00,50.7,47.8,30.30,South,180,5.6,7.6,90,0.00,,,0.00,LWC V2.11 B50,2013-03-13 12:28:00,
2013-03-13 05:30:00,49.5,44.8,30.24,ESE,109,0.9,0.0,83,0.00,,,0.00,WeatherCatV1.15B25,2013-03-13 12:30:00,
2013-03-13 05:33:00,50.7,47.8,30.29,SW,225,9.6,9.6,90,0.00,,,0.00,LWC V2.11 B50,2013-03-13 12:33:00,
2013-03-13 05:35:00,49.5,44.8,30.24,ESE,109,0.9,0.0,83,0.00,,,0.00,WeatherCatV1.15B25,2013-03-13 12:35:00,
2013-03-13 05:38:00,50.7,47.8,30.29,SW,225,9.6,9.6,90,0.00,,,0.00,LWC V2.11 B50,2013-03-13 12:38:00,
2013-03-13 05:40:00,49.5,44.8,30.24,ESE,109,0.9,0.0,83,0.00,,,0.00,WeatherCatV1.15B25,2013-03-13 12:40:00,
2013-03-13 05:43:00,50.7,47.8,30.30,SW,225,8.1,8.1,90,0.00,,,0.00,LWC V2.11 B50,2013-03-13 12:43:00,
2013-03-13 05:45:00,49.5,44.8,30.24,ESE,109,0.9,0.0,83,0.00,,,0.00,WeatherCatV1.15B25,2013-03-13 12:45:00,
2013-03-13 05:48:00,50.7,48.1,30.30,WSW,247,6.0,6.0,91,0.00,,,0.00,LWC V2.11 B50,2013-03-13 12:48:00,
2013-03-13 05:50:00,49.5,44.8,30.24,ESE,109,0.9,0.0,83,0.00,,,0.00,WeatherCatV1.15B25,2013-03-13 12:50:00,
2013-03-13 05:53:00,50.7,48.1,30.29,SSW,202,10.3,10.3,91,0.00,,,0.00,LWC V2.11 B50,2013-03-13 12:53:00,
2013-03-13 05:55:00,49.5,44.8,30.24,ESE,109,0.9,0.0,83,0.00,,,0.00,WeatherCatV1.15B25,2013-03-13 12:55:00,
2013-03-13 05:58:00,50.7,47.8,30.29,SSW,202,7.6,7.6,90,0.00,,,0.00,LWC V2.11 B50,2013-03-13 12:58:00,
2013-03-13 06:00:00,51.4,47.6,30.22,SW,228,7.7,9.2,87,0.00,,,0.00,LWC V2.11 B50,2013-03-13 13:00:00,
2013-03-13 06:05:00,49.5,44.8,30.24,ESE,109,0.9,0.0,83,0.00,,,0.00,WeatherCatV1.15B25,2013-03-13 13:05:00,
2013-03-13 06:10:00,51.4,47.6,30.22,SW,220,5.4,9.2,87,0.00,,,0.00,LWC V2.11 B50,2013-03-13 13:10:00,
2013-03-13 06:15:00,49.5,44.8,30.24,ESE,109,0.9,0.0,83,0.00,,,0.00,WeatherCatV1.15B25,2013-03-13 13:15:00,
2013-03-13 06:20:00,51.3,47.5,30.22,SW,215,8.8,8.9,87,0.00,,,0.00,LWC V2.11 B50,2013-03-13 13:20:00,
2013-03-13 06:25:00,49.5,44.8,30.24,ESE,109,0.9,0.0,83,0.00,,,0.00,WeatherCatV1.15B25,2013-03-13 13:25:00,
2013-03-13 06:30:00,51.4,47.6,30.22,SW,221,5.3,9.2,87,0.00,,,0.00,LWC V2.11 B50,2013-03-13 13:30:00,
2013-03-13 06:35:00,49.5,44.8,30.24,ESE,109,0.9,0.0,83,0.00,,,0.00,WeatherCatV1.15B25,2013-03-13 13:35:00,
2013-03-13 06:40:00,51.4,47.6,30.22,WSW,240,7.4,9.2,87,0.00,,,0.00,LWC V2.11 B50,2013-03-13 13:40:00,
2013-03-13 06:45:00,49.5,44.8,30.24,ESE,109,0.9,0.0,83,0.00,,,0.00,WeatherCatV1.15B25,2013-03-13 13:45:00,
2013-03-13 06:50:00,51.3,47.5,30.22,SW,217,8.3,9.2,87,0.00,,,0.00,LWC V2.11 B50,2013-03-13 13:50:00,
2013-03-13 06:55:00,49.5,44.8,30.24,ESE,109,0.9,0.0,83,0.00,,,0.00,WeatherCatV1.15B25,2013-03-13 13:55:00,
2013-03-13 07:00:00,51.1,47.6,30.22,WSW,239,6.8,9.6,88,0.00,,,0.00,LWC V2.11 B50,2013-03-13 14:00:00,
2013-03-13 07:05:00,49.5,44.8,30.24,ESE,109,0.9,0.0,83,0.00,,,0.00,WeatherCatV1.15B25,2013-03-13 14:05:00,
2013-03-13 07:10:00,51.1,47.6,30.22,SW,216,1.1,9.6,88,0.00,,,0.00,LWC V2.11 B50,2013-03-13 14:10:00,
2013-03-13 07:15:00,49.5,44.8,30.24,ESE,109,0.9,0.0,83,0.00,,,0.00,WeatherCatV1.15B25,2013-03-13 14:15:00,
2013-03-13 07:20:00,51.1,47.6,30.22,SW,222,4.8,9.6,88,0.00,,,0.00,LWC V2.11 B50,2013-03-13 14:20:00,
2013-03-13 07:25:00,49.5,44.8,30.24,ESE,109,0.9,0.0,83,0.00,,,0.00,WeatherCatV1.15B25,2013-03-13 14:25:00,
2013-03-13 07:30:00,51.1,47.6,30.23,SW,219,6.5,8.5,88,0.00,,,0.00,LWC V2.11 B50,2013-03-13 14:30:00,
2013-03-13 07:35:00,49.5,44.8,30.24,ESE,109,0.9,0.0,83,0.00,,,0.00,WeatherCatV1.15B25,2013-03-13 14:35:00,
2013-03-13 07:40:00,51.1,47.6,30.23,South,191,5.1,8.5,88,0.00,,,0.00,LWC V2.11 B50,2013-03-13 14:40:00,
2013-03-13 07:45:00,49.5,44.8,30.24,ESE,109,0.9,0.0,83,0.00,,,0.00,WeatherCatV1.15B25,2013-03-13 14:45:00,
2013-03-13 07:50:00,51.1,47.6,30.22,SW,215,2.3,6.9,88,0.00,,,0.00,LWC V2.11 B50,2013-03-13 14:50:00,
2013-03-13 07:55:00,49.5,44.8,30.24,ESE,109,0.9,0.0,83,0.00,,,0.00,WeatherCatV1.15B25,2013-03-13 14:55:00,
2013-03-13 08:00:00,50.5,47.7,30.20,WSW,248,0.7,0.7,90,0.00,,,0.00,LWC V2.11 B50,2013-03-13 15:00:00,
2013-03-13 08:05:00,49.5,44.8,30.24,ESE,109,0.9,0.0,83,0.00,,,0.00,WeatherCatV1.15B25,2013-03-13 15:05:00,
2013-03-13 08:10:00,50.5,47.7,30.20,WSW,248,0.7,0.7,90,0.00,,,0.00,LWC V2.11 B50,2013-03-13 15:10:00,
2013-03-13 08:15:00,49.5,44.8,30.24,ESE,109,0.9,0.0,83,0.00,,,0.00,WeatherCatV1.15B25,2013-03-13 15:15:00,
2013-03-13 08:20:00,50.5,47.7,30.20,WSW,248,0.7,0.7,90,0.00,,,0.00,LWC V2.11 B50,2013-03-13 15:20:00,
2013-03-13 08:25:00,49.5,44.8,30.24,ESE,109,0.9,0.0,83,0.00,,,0.00,WeatherCatV1.15B25,2013-03-13 15:25:00,
2013-03-13 08:30:00,50.5,47.7,30.20,WSW,248,0.7,0.7,90,0.00,,,0.00,LWC V2.11 B50,2013-03-13 15:30:00,
2013-03-13 08:35:00,49.5,44.8,30.24,ESE,109,0.9,0.0,83,0.00,,,0.00,WeatherCatV1.15B25,2013-03-13 15:35:00,
2013-03-13 08:40:00,50.5,47.7,30.20,WSW,248,0.7,0.7,90,0.00,,,0.00,LWC V2.11 B50,2013-03-13 15:40:00,
2013-03-13 08:45:00,49.5,44.8,30.24,ESE,109,0.9,0.0,83,0.00,,,0.00,WeatherCatV1.15B25,2013-03-13 15:45:00,
2013-03-13 08:50:00,50.5,47.7,30.20,WSW,248,0.7,0.7,90,0.00,,,0.00,LWC V2.11 B50,2013-03-13 15:50:00,
2013-03-13 08:55:00,49.5,44.8,30.24,ESE,109,0.9,0.0,83,0.00,,,0.00,WeatherCatV1.15B25,2013-03-13 15:55:00,
2013-03-13 09:00:00,50.5,47.7,30.20,WSW,248,0.7,0.7,90,0.00,,,0.00,LWC V2.11 B50,2013-03-13 16:00:00,
2013-03-13 09:05:00,49.5,44.8,30.24,ESE,109,0.9,0.0,83,0.00,,,0.00,WeatherCatV1.15B25,2013-03-13 16:05:00,
2013-03-13 09:10:00,50.5,47.7,30.20,WSW,248,0.7,0.7,90,0.00,,,0.00,LWC V2.11 B50,2013-03-13 16:10:00,
2013-03-13 09:15:00,49.5,44.8,30.24,ESE,109,0.9,0.0,83,0.00,,,0.00,WeatherCatV1.15B25,2013-03-13 16:15:00,
2013-03-13 09:20:00,50.5,47.7,30.20,WSW,248,0.7,0.7,90,0.00,,,0.00,LWC V2.11 B50,2013-03-13 16:20:00,
2013-03-13 09:25:00,49.5,44.8,30.24,ESE,109,0.9,0.0,83,0.00,,,0.00,WeatherCatV1.15B25,2013-03-13 16:25:00,
2013-03-13 09:30:00,50.5,47.7,30.20,WSW,248,0.7,0.7,90,0.00,,,0.00,LWC V2.11 B50,2013-03-13 16:30:00,
2013-03-13 09:35:00,49.5,44.8,30.24,ESE,109,0.9,0.0,83,0.00,,,0.00,WeatherCatV1.15B25,2013-03-13 16:35:00,
2013-03-13 09:40:00,50.5,47.7,30.20,WSW,248,0.7,0.7,90,0.00,,,0.00,LWC V2.11 B50,2013-03-13 16:40:00,
2013-03-13 09:45:00,49.5,44.8,30.24,ESE,108,0.9,0.0,83,0.00,,,0.00,WeatherCatV1.15B25,2013-03-13 16:45:00,
2013-03-13 09:50:00,50.5,47.7,30.20,WSW,248,0.7,0.7,90,0.00,,,0.00,LWC V2.11 B50,2013-03-13 16:50:00,
2013-03-13 09:55:00,49.5,44.8,30.24,ESE,108,0.9,0.0,83,0.00,,,0.00,WeatherCatV1.15B25,2013-03-13 16:55:00,
2013-03-13 10:00:00,50.5,47.7,30.20,WSW,248,0.7,0.7,90,0.00,,,0.00,LWC V2.11 B50,2013-03-13 17:00:00,
2013-03-13 10:05:00,49.5,44.8,30.24,ESE,108,0.9,0.0,83,0.00,,,0.00,WeatherCatV1.15B25,2013-03-13 17:05:00,
2013-03-13 10:10:00,50.5,47.7,30.20,WSW,248,0.7,0.7,90,0.00,,,0.00,LWC V2.11 B50,2013-03-13 17:10:00,
2013-03-13 10:15:00,49.5,44.8,30.24,ESE,108,0.9,0.0,83,0.00,,,0.00,WeatherCatV1.15B25,2013-03-13 17:15:00,
2013-03-13 10:20:00,50.5,47.7,30.20,WSW,248,0.7,0.7,90,0.00,,,0.00,LWC V2.11 B50,2013-03-13 17:20:00,
2013-03-13 10:25:00,49.5,44.8,30.24,ESE,108,0.9,0.0,83,0.00,,,0.00,WeatherCatV1.15B25,2013-03-13 17:25:00,
2013-03-13 10:30:00,50.5,47.7,30.20,WSW,248,0.7,0.7,90,0.00,,,0.00,LWC V2.11 B50,2013-03-13 17:30:00,
2013-03-13 10:35:00,49.5,44.8,30.24,ESE,108,0.9,0.0,83,0.00,,,0.00,WeatherCatV1.15B25,2013-03-13 17:35:00,
2013-03-13 10:40:00,50.5,47.7,30.20,WSW,248,0.7,0.7,90,0.00,,,0.00,LWC V2.11 B50,2013-03-13 17:40:00,
2013-03-13 10:45:00,49.5,44.8,30.24,ESE,108,0.9,0.0,83,0.00,,,0.00,WeatherCatV1.15B25,2013-03-13 17:45:00,
2013-03-13 10:50:00,50.5,47.7,30.20,WSW,248,0.7,0.7,90,0.00,,,0.00,LWC V2.11 B50,2013-03-13 17:50:00,
2013-03-13 10:55:00,49.5,44.8,30.24,ESE,108,0.9,0.0,83,0.00,,,0.00,WeatherCatV1.15B25,2013-03-13 17:55:00,
2013-03-13 11:00:00,50.5,47.7,30.20,WSW,248,0.7,0.7,90,0.00,,,0.00,LWC V2.11 B50,2013-03-13 18:00:00,
2013-03-13 11:05:00,49.5,44.8,30.24,ESE,108,0.9,0.0,83,0.00,,,0.00,WeatherCatV1.15B25,2013-03-13 18:05:00,
2013-03-13 11:10:00,50.5,47.7,30.20,WSW,248,0.7,0.7,90,0.00,,,0.00,LWC V2.11 B50,2013-03-13 18:10:00,
2013-03-13 11:15:00,49.5,44.8,30.24,ESE,108,0.9,0.0,83,0.00,,,0.00,WeatherCatV1.15B25,2013-03-13 18:15:00,
2013-03-13 11:20:00,50.5,47.7,30.20,WSW,248,0.7,0.7,90,0.00,,,0.00,LWC V2.11 B50,2013-03-13 18:20:00,
2013-03-13 11:25:00,49.5,44.8,30.24,ESE,108,0.9,0.0,83,0.00,,,0.00,WeatherCatV1.15B25,2013-03-13 18:25:00,
2013-03-13 11:30:00,50.5,47.7,30.20,WSW,248,0.7,0.7,90,0.00,,,0.00,LWC V2.11 B50,2013-03-13 18:30:00,
2013-03-13 11:35:00,49.5,44.8,30.24,ESE,108,0.9,0.0,83,0.00,,,0.00,WeatherCatV1.15B25,2013-03-13 18:35:00,
2013-03-13 11:40:00,50.5,47.7,30.20,WSW,248,0.7,0.7,90,0.00,,,0.00,LWC V2.11 B50,2013-03-13 18:40:00,
2013-03-13 11:45:00,49.5,44.8,30.24,ESE,108,0.9,0.0,83,0.00,,,0.00,WeatherCatV1.15B25,2013-03-13 18:45:00,
2013-03-13 11:50:00,50.5,47.7,30.20,WSW,248,0.7,0.7,90,0.00,,,0.00,LWC V2.11 B50,2013-03-13 18:50:00,
2013-03-13 11:55:00,49.5,44.8,30.24,ESE,108,0.9,0.0,83,0.00,,,0.00,WeatherCatV1.15B25,2013-03-13 18:55:00,
2013-03-13 12:00:00,50.5,47.7,30.20,WSW,248,0.7,0.7,90,0.00,,,0.00,LWC V2.11 B50,2013-03-13 19:00:00,
2013-03-13 12:05:00,49.5,44.8,30.24,ESE,108,0.9,0.0,83,0.00,,,0.00,WeatherCatV1.15B25,2013-03-13 19:05:00,
2013-03-13 12:10:00,50.5,47.7,30.20,WSW,248,0.7,0.7,90,0.00,,,0.00,LWC V2.11 B50,2013-03-13 19:10:00,
2013-03-13 12:15:00,49.5,44.8,30.24,ESE,108,0.9,0.0,83,0.00,,,0.00,WeatherCatV1.15B25,2013-03-13 19:15:00,
2013-03-13 12:20:00,50.5,47.7,30.20,WSW,248,0.7,0.7,90,0.00,,,0.00,LWC V2.11 B50,2013-03-13 19:20:00,
2013-03-13 12:25:00,49.5,44.8,30.24,ESE,108,0.9,0.0,83,0.00,,,0.00,WeatherCatV1.15B25,2013-03-13 19:25:00,
2013-03-13 12:30:00,50.5,47.7,30.20,WSW,248,0.7,0.7,90,0.00,,,0.00,LWC V2.11 B50,2013-03-13 19:30:00,
2013-03-13 12:35:00,49.5,44.8,30.24,ESE,108,0.9,0.0,83,0.00,,,0.00,WeatherCatV1.15B25,2013-03-13 19:35:00,
2013-03-13 12:40:00,50.5,47.7,30.20,WSW,248,0.7,0.7,90,0.00,,,0.00,LWC V2.11 B50,2013-03-13 19:40:00,
2013-03-13 12:45:00,49.5,44.8,30.24,ESE,108,0.9,0.0,83,0.00,,,0.00,WeatherCatV1.15B25,2013-03-13 19:45:00,
2013-03-13 12:50:00,50.5,47.7,30.20,WSW,248,0.7,0.7,90,0.00,,,0.00,LWC V2.11 B50,2013-03-13 19:50:00,
2013-03-13 12:55:00,49.5,44.8,30.24,ESE,108,0.9,0.0,83,0.00,,,0.00,WeatherCatV1.15B25,2013-03-13 19:55:00,
2013-03-13 13:00:00,50.5,47.7,30.20,WSW,248,0.7,0.7,90,0.00,,,0.00,LWC V2.11 B50,2013-03-13 20:00:00,
2013-03-13 13:05:00,49.5,44.8,30.24,ESE,108,0.9,0.0,83,0.00,,,0.00,WeatherCatV1.15B25,2013-03-13 20:05:00,
2013-03-13 13:10:00,50.5,47.7,30.20,WSW,248,0.7,0.7,90,0.00,,,0.00,LWC V2.11 B50,2013-03-13 20:10:00,
2013-03-13 13:15:00,49.5,44.8,30.24,ESE,108,0.9,0.0,83,0.00,,,0.00,WeatherCatV1.15B25,2013-03-13 20:15:00,
2013-03-13 13:20:00,50.5,47.7,30.20,WSW,248,0.7,0.7,90,0.00,,,0.00,LWC V2.11 B50,2013-03-13 20:20:00,
2013-03-13 13:25:00,49.5,44.8,30.24,ESE,108,0.9,0.0,83,0.00,,,0.00,WeatherCatV1.15B25,2013-03-13 20:25:00,
2013-03-13 13:30:00,50.5,47.7,30.20,WSW,248,0.7,0.7,90,0.00,,,0.00,LWC V2.11 B50,2013-03-13 20:30:00,
2013-03-13 13:35:00,49.5,44.8,30.24,ESE,108,0.9,0.0,83,0.00,,,0.00,WeatherCatV1.15B25,2013-03-13 20:35:00,
2013-03-13 13:40:00,50.5,47.7,30.20,WSW,248,0.7,0.7,90,0.00,,,0.00,LWC V2.11 B50,2013-03-13 20:40:00,
2013-03-13 13:45:00,49.5,44.8,30.24,ESE,108,0.9,0.0,83,0.00,,,0.00,WeatherCatV1.15B25,2013-03-13 20:45:00,
2013-03-13 13:50:00,50.5,47.7,30.20,WSW,248,0.7,0.7,90,0.00,,,0.00,LWC V2.11 B50,2013-03-13 20:50:00,
2013-03-13 13:55:00,49.5,44.8,30.24,ESE,108,0.9,0.0,83,0.00,,,0.00,WeatherCatV1.15B25,2013-03-13 20:55:00,
2013-03-13 14:00:00,50.5,47.7,30.20,WSW,248,0.7,0.7,90,0.00,,,0.00,LWC V2.11 B50,2013-03-13 21:00:00,
2013-03-13 14:05:00,49.5,44.8,30.24,ESE,108,0.9,0.0,83,0.00,,,0.00,WeatherCatV1.15B25,2013-03-13 21:05:00,
2013-03-13 14:10:00,50.5,47.7,30.20,WSW,248,0.7,0.7,90,0.00,,,0.00,LWC V2.11 B50,2013-03-13 21:10:00,
2013-03-13 14:15:00,49.5,44.8,30.24,ESE,108,0.9,0.0,83,0.00,,,0.00,WeatherCatV1.15B25,2013-03-13 21:15:00,
2013-03-13 14:20:00,50.5,47.7,30.20,WSW,248,0.7,0.7,90,0.00,,,0.00,LWC V2.11 B50,2013-03-13 21:20:00,
2013-03-13 14:25:00,49.5,44.8,30.24,ESE,108,0.9,0.0,83,0.00,,,0.00,WeatherCatV1.15B25,2013-03-13 21:25:00,
2013-03-13 14:30:00,50.5,47.7,30.20,WSW,248,0.7,0.7,90,0.00,,,0.00,LWC V2.11 B50,2013-03-13 21:30:00,
2013-03-13 14:35:00,49.5,44.8,30.24,ESE,108,0.9,0.0,83,0.00,,,0.00,WeatherCatV1.15B25,2013-03-13 21:35:00,
2013-03-13 14:40:00,50.5,47.7,30.20,WSW,248,0.7,0.7,90,0.00,,,0.00,LWC V2.11 B50,2013-03-13 21:40:00,
2013-03-13 14:45:00,49.5,44.8,30.24,ESE,108,0.9,0.0,83,0.00,,,0.00,WeatherCatV1.15B25,2013-03-13 21:45:00,
2013-03-13 14:50:00,50.5,47.7,30.20,WSW,248,0.7,0.7,90,0.00,,,0.00,LWC V2.11 B50,2013-03-13 21:50:00,
2013-03-13 14:55:00,49.5,44.8,30.24,ESE,108,0.9,0.0,83,0.00,,,0.00,WeatherCatV1.15B25,2013-03-13 21:55:00,
2013-03-13 15:00:00,50.5,47.7,30.20,WSW,248,0.7,0.7,90,0.00,,,0.00,LWC V2.11 B50,2013-03-13 22:00:00,
2013-03-13 15:05:00,49.5,44.8,30.24,ESE,108,0.9,0.0,83,0.00,,,0.00,WeatherCatV1.15B25,2013-03-13 22:05:00,
2013-03-13 15:10:00,50.5,47.7,30.20,WSW,248,0.7,0.7,90,0.00,,,0.00,LWC V2.11 B50,2013-03-13 22:10:00,
2013-03-13 15:15:00,49.5,44.8,30.24,ESE,108,0.9,0.0,83,0.00,,,0.00,WeatherCatV1.15B25,2013-03-13 22:15:00,
2013-03-13 15:20:00,57.0,51.2,30.29,South,180,2.9,2.9,81,0.00,,,0.00,LWC V2.11 B50,2013-03-13 22:20:00,
2013-03-13 15:25:00,57.0,51.2,30.28,SW,225,4.5,4.5,81,0.00,,,0.00,LWC V2.11 B50,2013-03-13 22:25:00,
2013-03-13 15:30:00,57.0,51.2,30.27,SE,135,0.0,0.0,81,0.00,,,0.00,LWC V2.11 B50,2013-03-13 22:30:00,
2013-03-13 15:35:00,57.6,51.8,30.28,WSW,247,3.6,3.6,81,0.00,,,0.00,LWC V2.11 B50,2013-03-13 22:35:00,
2013-03-13 15:40:00,57.6,51.8,30.27,SSE,157,0.0,0.0,81,0.00,,,0.00,LWC V2.11 B50,2013-03-13 22:40:00,
2013-03-13 15:45:00,49.5,44.8,30.24,ESE,108,0.9,0.0,83,0.00,,,0.00,WeatherCatV1.15B25,2013-03-13 22:45:00,
2013-03-13 15:46:00,57.6,51.9,30.28,SW,225,5.4,5.4,81,0.00,,,0.00,LWC V2.11 B50,2013-03-13 22:46:00,
2013-03-13 15:50:00,49.5,44.8,30.24,ESE,108,0.9,0.0,83,0.00,,,0.00,WeatherCatV1.15B25,2013-03-13 22:50:00,
2013-03-13 15:51:00,57.7,51.6,30.28,SSW,202,2.2,2.2,80,0.00,,,0.00,LWC V2.11 B50,2013-03-13 22:51:00,
2013-03-13 15:55:00,49.5,44.8,30.24,ESE,108,0.9,0.0,83,0.00,,,0.00,WeatherCatV1.15B25,2013-03-13 22:55:00,
2013-03-13 15:56:00,57.7,51.6,30.27,SW,225,4.9,4.9,80,0.00,,,0.00,LWC V2.11 B50,2013-03-13 22:56:00,
2013-03-13 16:00:00,49.5,44.8,30.24,ESE,108,0.9,0.0,83,0.00,,,0.00,WeatherCatV1.15B25,2013-03-13 23:00:00,
2013-03-13 16:01:00,57.6,51.1,30.28,WSW,247,6.0,6.0,79,0.00,,,0.00,LWC V2.11 B50,2013-03-13 23:01:00,
2013-03-13 16:05:00,49.5,44.8,30.24,ESE,108,0.9,0.0,83,0.00,,,0.00,WeatherCatV1.15B25,2013-03-13 23:05:00,
2013-03-13 16:06:00,57.6,51.1,30.27,SW,225,3.8,3.8,79,0.00,,,0.00,LWC V2.11 B50,2013-03-13 23:06:00,
2013-03-13 16:10:00,49.5,44.8,30.24,ESE,108,0.9,0.0,83,0.00,,,0.00,WeatherCatV1.15B25,2013-03-13 23:10:00,
2013-03-13 16:11:00,57.4,50.9,30.27,WSW,247,1.8,1.8,79,0.00,,,0.00,LWC V2.11 B50,2013-03-13 23:11:00,
2013-03-13 16:15:00,49.5,44.8,30.24,ESE,108,0.9,0.0,83,0.00,,,0.00,WeatherCatV1.15B25,2013-03-13 23:15:00,
2013-03-13 16:16:00,57.4,50.9,30.27,SSW,202,2.9,2.9,79,0.00,,,0.00,LWC V2.11 B50,2013-03-13 23:16:00,
2013-03-13 16:20:00,49.5,44.8,30.24,ESE,108,0.9,0.0,83,0.00,,,0.00,WeatherCatV1.15B25,2013-03-13 23:20:00,
2013-03-13 16:21:00,57.4,50.9,30.28,SSW,202,1.8,1.8,79,0.00,,,0.00,LWC V2.11 B50,2013-03-13 23:21:00,
2013-03-13 16:25:00,49.5,44.8,30.24,ESE,108,0.9,0.0,83,0.00,,,0.00,WeatherCatV1.15B25,2013-03-13 23:25:00,
2013-03-13 16:26:00,57.0,50.5,30.28,SSW,202,3.8,3.8,79,0.00,,,0.00,LWC V2.11 B50,2013-03-13 23:26:00,
2013-03-13 16:30:00,49.5,44.8,30.24,ESE,108,0.9,0.0,83,0.00,,,0.00,WeatherCatV1.15B25,2013-03-13 23:30:00,
2013-03-13 16:31:00,57.0,50.5,30.27,SW,225,2.7,3.1,79,0.00,,,0.00,LWC V2.11 B50,2013-03-13 23:31:00,
2013-03-13 16:35:00,49.5,44.8,30.24,ESE,108,0.9,0.0,83,0.00,,,0.00,WeatherCatV1.15B25,2013-03-13 23:35:00,
2013-03-13 16:36:00,56.8,50.4,30.28,SSW,202,4.0,4.0,79,0.00,,,0.00,LWC V2.11 B50,2013-03-13 23:36:00,
2013-03-13 16:40:00,49.5,44.8,30.24,ESE,108,0.9,0.0,83,0.00,,,0.00,WeatherCatV1.15B25,2013-03-13 23:40:00,
2013-03-13 16:41:00,56.8,50.4,30.28,ESE,112,2.5,4.7,79,0.00,,,0.00,LWC V2.11 B50,2013-03-13 23:41:00,
2013-03-13 16:45:00,49.5,44.8,30.24,ESE,108,0.9,0.0,83,0.00,,,0.00,WeatherCatV1.15B25,2013-03-13 23:45:00,
2013-03-13 16:46:00,56.7,50.5,30.27,South,180,0.9,2.0,80,0.00,,,0.00,LWC V2.11 B50,2013-03-13 23:46:00,
2013-03-13 16:50:00,49.5,44.8,30.24,ESE,108,0.9,0.0,83,0.00,,,0.00,WeatherCatV1.15B25,2013-03-13 23:50:00,
2013-03-13 16:51:00,56.5,50.4,30.27,WSW,247,0.0,0.0,80,0.00,,,0.00,LWC V2.11 B50,2013-03-13 23:51:00,
2013-03-13 16:55:00,49.5,44.8,30.24,ESE,108,0.9,0.0,83,0.00,,,0.00,WeatherCatV1.15B25,2013-03-13 23:55:00,
2013-03-13 16:56:00,56.5,50.4,30.27,South,180,3.8,3.8,80,0.00,,,0.00,LWC V2.11 B50,2013-03-13 23:56:00,
2013-03-13 17:00:00,49.5,44.8,30.24,ESE,108,0.9,0.0,83,0.00,,,0.00,WeatherCatV1.15B25,2013-03-14 00:00:00,
2013-03-13 17:01:00,56.3,50.2,30.26,South,180,2.5,2.5,80,0.00,,,0.00,LWC V2.11 B50,2013-03-14 00:01:00,
2013-03-13 17:05:00,49.5,44.8,30.24,ESE,108,0.9,0.0,83,0.00,,,0.00,WeatherCatV1.15B25,2013-03-14 00:05:00,
2013-03-13 17:06:00,56.3,50.2,30.26,South,180,0.0,0.0,80,0.00,,,0.00,LWC V2.11 B50,2013-03-14 00:06:00,
2013-03-13 17:10:00,49.5,44.8,30.24,ESE,108,0.9,0.0,83,0.00,,,0.00,WeatherCatV1.15B25,2013-03-14 00:10:00,
2013-03-13 17:11:00,56.1,50.0,30.26,SSE,157,0.0,0.0,80,0.00,,,0.00,LWC V2.11 B50,2013-03-14 00:11:00,
2013-03-13 17:15:00,49.5,44.8,30.24,ESE,108,0.9,0.0,83,0.00,,,0.00,WeatherCatV1.15B25,2013-03-14 00:15:00,
2013-03-13 17:17:00,56.1,50.3,30.26,SSE,157,2.2,2.2,81,0.00,,,0.00,LWC V2.11 B50,2013-03-14 00:17:00,
2013-03-13 17:20:00,49.5,44.8,30.24,ESE,108,0.9,0.0,83,0.00,,,0.00,WeatherCatV1.15B25,2013-03-14 00:20:00,
2013-03-13 17:22:00,56.1,50.3,30.25,South,180,2.7,2.7,81,0.00,,,0.00,LWC V2.11 B50,2013-03-14 00:22:00,
2013-03-13 17:25:00,49.5,44.8,30.24,ESE,108,0.9,0.0,83,0.00,,,0.00,WeatherCatV1.15B25,2013-03-14 00:25:00,
2013-03-13 17:27:00,56.1,50.3,30.25,SSW,202,3.1,3.1,81,0.00,,,0.00,LWC V2.11 B50,2013-03-14 00:27:00,
2013-03-13 17:30:00,49.5,44.8,30.24,ESE,108,0.9,0.0,83,0.00,,,0.00,WeatherCatV1.15B25,2013-03-14 00:30:00,
2013-03-13 17:32:00,56.1,50.3,30.25,ENE,67,4.7,4.7,81,0.00,,,0.00,LWC V2.11 B50,2013-03-14 00:32:00,
2013-03-13 17:35:00,49.5,44.8,30.24,ESE,108,0.9,0.0,83,0.00,,,0.00,WeatherCatV1.15B25,2013-03-14 00:35:00,
2013-03-13 17:37:00,56.1,50.3,30.25,SSE,157,0.9,2.2,81,0.00,,,0.00,LWC V2.11 B50,2013-03-14 00:37:00,
2013-03-13 17:40:00,49.5,44.8,30.24,ESE,108,0.9,0.0,83,0.00,,,0.00,WeatherCatV1.15B25,2013-03-14 00:40:00,
2013-03-13 17:42:00,55.9,50.1,30.25,SE,135,5.6,5.6,81,0.00,,,0.00,LWC V2.11 B50,2013-03-14 00:42:00,
2013-03-13 17:45:00,49.5,44.8,30.24,ESE,108,0.9,0.0,83,0.00,,,0.00,WeatherCatV1.15B25,2013-03-14 00:45:00,
2013-03-13 17:47:00,55.8,50.0,30.25,SSE,157,2.7,2.7,81,0.00,,,0.00,LWC V2.11 B50,2013-03-14 00:47:00,
2013-03-13 17:50:00,49.5,44.8,30.24,ESE,108,0.9,0.0,83,0.00,,,0.00,WeatherCatV1.15B25,2013-03-14 00:50:00,
2013-03-13 17:52:00,55.8,50.0,30.25,SSE,157,0.0,6.3,81,0.00,,,0.00,LWC V2.11 B50,2013-03-14 00:52:00,
2013-03-13 17:55:00,49.5,44.8,30.24,ESE,108,0.9,0.0,83,0.00,,,0.00,WeatherCatV1.15B25,2013-03-14 00:55:00,
2013-03-13 17:57:00,55.8,50.0,30.25,SSE,157,3.1,3.1,81,0.00,,,0.00,LWC V2.11 B50,2013-03-14 00:57:00,
2013-03-13 18:00:00,49.5,44.7,30.24,ESE,108,0.9,0.0,83,0.00,,,0.00,WeatherCatV1.15B25,2013-03-14 01:00:00,
2013-03-13 18:02:00,55.8,50.0,30.25,WNW,292,1.8,1.8,81,0.00,,,0.00,LWC V2.11 B50,2013-03-14 01:02:00,
2013-03-13 18:05:00,49.5,44.7,30.24,ESE,108,0.9,0.0,83,0.00,,,0.00,WeatherCatV1.15B25,2013-03-14 01:05:00,
2013-03-13 18:07:00,55.6,49.8,30.26,SW,225,0.0,4.7,81,0.00,,,0.00,LWC V2.11 B50,2013-03-14 01:07:00,
2013-03-13 18:10:00,49.5,44.7,30.24,ESE,108,0.9,0.0,83,0.00,,,0.00,WeatherCatV1.15B25,2013-03-14 01:10:00,
2013-03-13 18:12:00,55.4,49.6,30.25,SW,225,1.8,1.8,81,0.00,,,0.00,LWC V2.11 B50,2013-03-14 01:12:00,
2013-03-13 18:15:00,49.5,44.7,30.24,ESE,108,0.9,0.0,83,0.00,,,0.00,WeatherCatV1.15B25,2013-03-14 01:15:00,
2013-03-13 18:17:00,55.2,49.4,30.25,South,180,3.6,3.6,81,0.00,,,0.00,LWC V2.11 B50,2013-03-14 01:17:00,
2013-03-13 18:20:00,49.5,44.7,30.24,ESE,108,0.9,0.0,83,0.00,,,0.00,WeatherCatV1.15B25,2013-03-14 01:20:00,
2013-03-13 18:22:00,55.2,49.4,30.25,West,270,4.0,5.6,81,0.00,,,0.00,LWC V2.11 B50,2013-03-14 01:22:00,
2013-03-13 18:25:00,49.5,44.7,30.24,ESE,108,0.9,0.0,83,0.00,,,0.00,WeatherCatV1.15B25,2013-03-14 01:25:00,
2013-03-13 18:27:00,55.2,49.4,30.24,SSE,157,2.7,2.7,81,0.00,,,0.00,LWC V2.11 B50,2013-03-14 01:27:00,
2013-03-13 18:30:00,49.5,44.7,30.24,ESE,108,0.9,0.0,83,0.00,,,0.00,WeatherCatV1.15B25,2013-03-14 01:30:00,
2013-03-13 18:33:00,55.0,49.4,30.24,South,180,0.0,2.7,81,0.00,,,0.00,LWC V2.11 B50,2013-03-14 01:33:00,
2013-03-13 18:35:00,49.5,44.7,30.24,ESE,108,0.9,0.0,83,0.00,,,0.00,WeatherCatV1.15B25,2013-03-14 01:35:00,
2013-03-13 18:38:00,55.0,49.3,30.24,SW,225,0.0,4.7,81,0.00,,,0.00,LWC V2.11 B50,2013-03-14 01:38:00,
2013-03-13 18:40:00,49.5,44.7,30.24,ESE,108,0.9,0.0,83,0.00,,,0.00,WeatherCatV1.15B25,2013-03-14 01:40:00,
2013-03-13 18:43:00,55.0,49.3,30.24,SSW,202,2.2,2.2,81,0.00,,,0.00,LWC V2.11 B50,2013-03-14 01:43:00,
2013-03-13 18:45:00,49.5,44.7,30.24,ESE,108,0.9,0.0,83,0.00,,,0.00,WeatherCatV1.15B25,2013-03-14 01:45:00,
2013-03-13 18:48:00,55.0,49.3,30.24,SE,135,1.3,3.1,81,0.00,,,0.00,LWC V2.11 B50,2013-03-14 01:48:00,
2013-03-13 18:50:00,49.5,44.7,30.24,ESE,108,0.9,0.0,83,0.00,,,0.00,WeatherCatV1.15B25,2013-03-14 01:50:00,
2013-03-13 18:53:00,54.7,48.9,30.24,WSW,247,2.5,2.5,81,0.00,,,0.00,LWC V2.11 B50,2013-03-14 01:53:00,
2013-03-13 18:55:00,49.5,44.7,30.24,ESE,108,0.9,0.0,83,0.00,,,0.00,WeatherCatV1.15B25,2013-03-14 01:55:00,
2013-03-13 18:58:00,54.7,48.9,30.24,WSW,247,3.6,3.6,81,0.00,,,0.00,LWC V2.11 B50,2013-03-14 01:58:00,
2013-03-13 19:00:00,49.5,44.7,30.24,ESE,108,0.9,0.0,83,0.00,,,0.00,WeatherCatV1.15B25,2013-03-14 02:00:00,
2013-03-13 19:03:00,54.5,48.8,30.25,South,180,4.9,9.2,81,0.00,,,0.00,LWC V2.11 B50,2013-03-14 02:03:00,
2013-03-13 19:05:00,49.5,44.7,30.24,ESE,108,0.9,0.0,83,0.00,,,0.00,WeatherCatV1.15B25,2013-03-14 02:05:00,
2013-03-13 19:08:00,54.3,48.6,30.25,SW,225,10.5,10.5,81,0.00,,,0.00,LWC V2.11 B50,2013-03-14 02:08:00,
2013-03-13 19:10:00,49.5,44.7,30.24,ESE,108,0.9,0.0,83,0.00,,,0.00,WeatherCatV1.15B25,2013-03-14 02:10:00,
2013-03-13 19:13:00,54.3,48.5,30.25,SW,225,5.1,5.1,81,0.00,,,0.00,LWC V2.11 B50,2013-03-14 02:13:00,
2013-03-13 19:15:00,49.5,44.7,30.24,ESE,108,0.9,0.0,83,0.00,,,0.00,WeatherCatV1.15B25,2013-03-14 02:15:00,
2013-03-13 19:18:00,54.1,48.5,30.25,SW,225,9.2,11.6,81,0.00,,,0.00,LWC V2.11 B50,2013-03-14 02:18:00,
2013-03-13 19:20:00,49.5,44.7,30.24,ESE,108,0.9,0.0,83,0.00,,,0.00,WeatherCatV1.15B25,2013-03-14 02:20:00,
2013-03-13 19:23:00,54.1,48.8,30.25,SW,225,8.1,8.1,82,0.00,,,0.00,LWC V2.11 B50,2013-03-14 02:23:00,
2013-03-13 19:25:00,49.5,44.7,30.24,ESE,108,0.9,0.0,83,0.00,,,0.00,WeatherCatV1.15B25,2013-03-14 02:25:00,
2013-03-13 19:28:00,54.0,48.6,30.24,South,180,6.7,6.7,82,0.00,,,0.00,LWC V2.11 B50,2013-03-14 02:28:00,
2013-03-13 19:30:00,49.5,44.7,30.24,ESE,108,0.9,0.0,83,0.00,,,0.00,WeatherCatV1.15B25,2013-03-14 02:30:00,
2013-03-13 19:33:00,53.8,48.4,30.25,SSE,157,5.4,8.5,82,0.00,,,0.00,LWC V2.11 B50,2013-03-14 02:33:00,
2013-03-13 19:35:00,49.5,44.7,30.24,ESE,108,0.9,0.0,83,0.00,,,0.00,WeatherCatV1.15B25,2013-03-14 02:35:00,
2013-03-13 19:38:00,53.6,48.3,30.25,SW,225,11.4,11.4,82,0.00,,,0.00,LWC V2.11 B50,2013-03-14 02:38:00,
2013-03-13 19:40:00,49.5,44.7,30.24,ESE,108,0.9,0.0,83,0.00,,,0.00,WeatherCatV1.15B25,2013-03-14 02:40:00,
2013-03-13 19:43:00,53.4,48.4,30.23,SW,225,6.3,9.8,83,0.00,,,0.00,LWC V2.11 B50,2013-03-14 02:43:00,
2013-03-13 19:45:00,49.5,44.7,30.24,ESE,108,0.9,0.0,83,0.00,,,0.00,WeatherCatV1.15B25,2013-03-14 02:45:00,
2013-03-13 19:49:00,53.4,48.4,30.24,SW,225,4.5,4.5,83,0.00,,,0.00,LWC V2.11 B50,2013-03-14 02:49:00,
2013-03-13 19:50:00,49.5,44.7,30.24,ESE,108,0.9,0.0,83,0.00,,,0.00,WeatherCatV1.15B25,2013-03-14 02:50:00,
2013-03-13 19:54:00,53.4,48.4,30.24,WSW,247,6.0,6.0,83,0.00,,,0.00,LWC V2.11 B50,2013-03-14 02:54:00,
2013-03-13 19:55:00,49.5,44.7,30.24,ESE,108,0.9,0.0,83,0.00,,,0.00,WeatherCatV1.15B25,2013-03-14 02:55:00,
2013-03-13 19:59:00,53.2,48.2,30.23,SSW,202,2.5,5.6,83,0.00,,,0.00,LWC V2.11 B50,2013-03-14 02:59:00,
2013-03-13 20:00:00,49.5,44.7,30.24,ESE,108,0.9,0.0,83,0.00,,,0.00,WeatherCatV1.15B25,2013-03-14 03:00:00,
2013-03-13 20:04:00,53.2,48.2,30.23,SSE,157,2.9,2.9,83,0.00,,,0.00,LWC V2.11 B50,2013-03-14 03:04:00,
2013-03-13 20:05:00,49.5,44.7,30.24,ESE,108,0.9,0.0,83,0.00,,,0.00,WeatherCatV1.15B25,2013-03-14 03:05:00,
2013-03-13 20:09:00,53.2,48.2,30.23,SSW,202,6.7,6.7,83,0.00,,,0.00,LWC V2.11 B50,2013-03-14 03:09:00,
2013-03-13 20:10:00,49.5,44.7,30.24,ESE,108,0.9,0.0,83,0.00,,,0.00,WeatherCatV1.15B25,2013-03-14 03:10:00,
2013-03-13 20:14:00,53.2,48.2,30.23,WSW,247,0.9,5.6,83,0.00,,,0.00,LWC V2.11 B50,2013-03-14 03:14:00,
2013-03-13 20:15:00,49.5,44.7,30.24,ESE,108,0.9,0.0,83,0.00,,,0.00,WeatherCatV1.15B25,2013-03-14 03:15:00,
2013-03-13 20:19:00,53.2,48.2,30.24,SSW,202,0.9,0.9,83,0.00,,,0.00,LWC V2.11 B50,2013-03-14 03:19:00,
2013-03-13 20:20:00,49.5,44.7,30.24,ESE,108,0.9,0.0,83,0.00,,,0.00,WeatherCatV1.15B25,2013-03-14 03:20:00,
2013-03-13 20:24:00,53.2,48.2,30.24,South,180,2.9,2.9,83,0.00,,,0.00,LWC V2.11 B50,2013-03-14 03:24:00,
2013-03-13 20:25:00,49.5,44.7,30.24,ESE,108,0.9,0.0,83,0.00,,,0.00,WeatherCatV1.15B25,2013-03-14 03:25:00,
2013-03-13 20:29:00,53.4,48.4,30.24,South,180,2.5,3.1,83,0.00,,,0.00,LWC V2.11 B50,2013-03-14 03:29:00,
2013-03-13 20:30:00,49.5,44.7,30.24,ESE,108,0.9,0.0,83,0.00,,,0.00,WeatherCatV1.15B25,2013-03-14 03:30:00,
2013-03-13 20:34:00,53.4,48.4,30.25,SW,225,6.5,6.5,83,0.00,,,0.00,LWC V2.11 B50,2013-03-14 03:34:00,
2013-03-13 20:35:00,49.5,44.7,30.24,ESE,108,0.9,0.0,83,0.00,,,0.00,WeatherCatV1.15B25,2013-03-14 03:35:00,
2013-03-13 20:39:00,53.4,48.4,30.25,SW,225,4.2,6.9,83,0.00,,,0.00,LWC V2.11 B50,2013-03-14 03:39:00,
2013-03-13 20:40:00,49.5,44.7,30.24,ESE,108,0.9,0.0,83,0.00,,,0.00,WeatherCatV1.15B25,2013-03-14 03:40:00,
2013-03-13 20:44:00,53.4,48.1,30.25,SW,225,9.4,9.4,82,0.00,,,0.00,LWC V2.11 B50,2013-03-14 03:44:00,
2013-03-13 20:45:00,49.5,44.7,30.24,ESE,108,0.9,0.0,83,0.00,,,0.00,WeatherCatV1.15B25,2013-03-14 03:45:00,
2013-03-13 20:49:00,53.4,48.1,30.25,SSW,202,7.2,7.6,82,0.00,,,0.00,LWC V2.11 B50,2013-03-14 03:49:00,
2013-03-13 20:50:00,49.5,44.7,30.24,ESE,108,0.9,0.0,83,0.00,,,0.00,WeatherCatV1.15B25,2013-03-14 03:50:00,
2013-03-13 20:54:00,53.2,47.9,30.24,SW,225,4.5,8.5,82,0.00,,,0.00,LWC V2.11 B50,2013-03-14 03:54:00,
2013-03-13 20:55:00,49.5,44.7,30.24,ESE,108,0.9,0.0,83,0.00,,,0.00,WeatherCatV1.15B25,2013-03-14 03:55:00,
2013-03-13 20:59:00,53.2,47.9,30.24,SW,225,5.1,5.1,82,0.00,,,0.00,LWC V2.11 B50,2013-03-14 03:59:00,
2013-03-13 21:00:00,53.2,47.9,30.24,SW,225,5.1,5.1,82,0.00,,,0.00,LWC V2.11 B50,2013-03-14 04:00:00,
2013-03-13 21:01:00,53.2,47.9,30.24,SSW,202,8.3,8.3,82,0.00,,,0.00,LWC V2.11 B50,2013-03-14 04:01:00,
2013-03-13 21:05:00,49.5,44.7,30.24,ESE,108,0.9,0.0,83,0.00,,,0.00,WeatherCatV1.15B25,2013-03-14 04:05:00,
2013-03-13 21:06:00,52.9,47.9,30.24,SW,225,5.8,7.8,83,0.00,,,0.00,LWC V2.11 B50,2013-03-14 04:06:00,
2013-03-13 21:10:00,49.5,44.7,30.24,ESE,108,0.9,0.0,83,0.00,,,0.00,WeatherCatV1.15B25,2013-03-14 04:10:00,
2013-03-13 21:11:00,52.9,47.9,30.23,SW,225,5.8,7.2,83,0.00,,,0.00,LWC V2.11 B50,2013-03-14 04:11:00,
2013-03-13 21:15:00,49.5,44.7,30.24,ESE,108,0.9,0.0,83,0.00,,,0.00,WeatherCatV1.15B25,2013-03-14 04:15:00,
2013-03-13 21:16:00,52.7,47.7,30.24,SSW,202,8.5,8.5,83,0.00,,,0.00,LWC V2.11 B50,2013-03-14 04:16:00,
2013-03-13 21:20:00,49.5,44.7,30.24,ESE,108,0.9,0.0,83,0.00,,,0.00,WeatherCatV1.15B25,2013-03-14 04:20:00,
2013-03-13 21:21:00,52.7,47.7,30.23,SW,225,5.4,5.4,83,0.00,,,0.00,LWC V2.11 B50,2013-03-14 04:21:00,
2013-03-13 21:25:00,49.5,44.7,30.24,ESE,108,0.9,0.0,83,0.00,,,0.00,WeatherCatV1.15B25,2013-03-14 04:25:00,
2013-03-13 21:26:00,52.5,47.5,30.24,SSW,202,6.9,6.9,83,0.00,,,0.00,LWC V2.11 B50,2013-03-14 04:26:00,
2013-03-13 21:30:00,49.5,44.7,30.24,ESE,108,0.9,0.0,83,0.00,,,0.00,WeatherCatV1.15B25,2013-03-14 04:30:00,
2013-03-13 21:31:00,52.5,47.5,30.23,SW,225,7.2,7.2,83,0.00,,,0.00,LWC V2.11 B50,2013-03-14 04:31:00,
2013-03-13 21:35:00,49.5,44.7,30.24,ESE,108,0.9,0.0,83,0.00,,,0.00,WeatherCatV1.15B25,2013-03-14 04:35:00,
2013-03-13 21:36:00,52.5,47.5,30.23,SW,225,7.6,7.6,83,0.00,,,0.00,LWC V2.11 B50,2013-03-14 04:36:00,
2013-03-13 21:40:00,49.5,44.7,30.24,ESE,108,0.9,0.0,83,0.00,,,0.00,WeatherCatV1.15B25,2013-03-14 04:40:00,
2013-03-13 21:41:00,52.5,47.5,30.23,SSW,202,6.7,6.7,83,0.00,,,0.00,LWC V2.11 B50,2013-03-14 04:41:00,
2013-03-13 21:45:00,49.5,44.7,30.24,ESE,108,0.9,0.0,83,0.00,,,0.00,WeatherCatV1.15B25,2013-03-14 04:45:00,
2013-03-13 21:46:00,52.5,47.5,30.23,SW,225,8.3,8.3,83,0.00,,,0.00,LWC V2.11 B50,2013-03-14 04:46:00,
2013-03-13 21:50:00,49.5,44.7,30.24,ESE,108,0.9,0.0,83,0.00,,,0.00,WeatherCatV1.15B25,2013-03-14 04:50:00,
2013-03-13 21:51:00,52.3,47.3,30.23,WSW,247,3.8,3.8,83,0.00,,,0.00,LWC V2.11 B50,2013-03-14 04:51:00,
2013-03-13 21:55:00,49.5,44.7,30.24,ESE,108,0.9,0.0,83,0.00,,,0.00,WeatherCatV1.15B25,2013-03-14 04:55:00,
2013-03-13 21:56:00,52.3,47.3,30.23,SW,225,5.1,5.6,83,0.00,,,0.00,LWC V2.11 B50,2013-03-14 04:56:00,
2013-03-13 22:00:00,49.5,44.7,30.24,ESE,108,0.9,0.0,83,0.00,,,0.00,WeatherCatV1.15B25,2013-03-14 05:00:00,
2013-03-13 22:01:00,52.3,47.3,30.23,SW,225,8.3,8.3,83,0.00,,,0.00,LWC V2.11 B50,2013-03-14 05:01:00,
2013-03-13 22:05:00,49.5,44.7,30.24,ESE,108,0.9,0.0,83,0.00,,,0.00,WeatherCatV1.15B25,2013-03-14 05:05:00,
2013-03-13 22:06:00,52.3,47.3,30.23,WSW,247,3.8,3.8,83,0.00,,,0.00,LWC V2.11 B50,2013-03-14 05:06:00,
2013-03-13 22:10:00,49.5,44.7,30.24,ESE,108,0.9,0.0,83,0.00,,,0.00,WeatherCatV1.15B25,2013-03-14 05:10:00,
2013-03-13 22:11:00,52.3,47.3,30.23,SSW,202,6.3,6.3,83,0.00,,,0.00,LWC V2.11 B50,2013-03-14 05:11:00,
2013-03-13 22:15:00,49.5,44.7,30.24,ESE,108,0.9,0.0,83,0.00,,,0.00,WeatherCatV1.15B25,2013-03-14 05:15:00,
2013-03-13 22:16:00,52.2,47.1,30.23,SSW,202,6.7,6.7,83,0.00,,,0.00,LWC V2.11 B50,2013-03-14 05:16:00,
2013-03-13 22:20:00,49.5,44.7,30.24,ESE,108,0.9,0.0,83,0.00,,,0.00,WeatherCatV1.15B25,2013-03-14 05:20:00,
2013-03-13 22:21:00,52.2,47.1,30.23,ESE,112,3.1,3.1,83,0.00,,,0.00,LWC V2.11 B50,2013-03-14 05:21:00,
2013-03-13 22:25:00,49.5,44.7,30.24,ESE,108,0.9,0.0,83,0.00,,,0.00,WeatherCatV1.15B25,2013-03-14 05:25:00,
2013-03-13 22:26:00,52.0,47.3,30.23,SW,225,5.8,5.8,84,0.00,,,0.00,LWC V2.11 B50,2013-03-14 05:26:00,
2013-03-13 22:30:00,49.5,44.7,30.24,ESE,108,0.9,0.0,83,0.00,,,0.00,WeatherCatV1.15B25,2013-03-14 05:30:00,
2013-03-13 22:32:00,52.0,47.3,30.24,SSW,202,5.6,5.6,84,0.00,,,0.00,LWC V2.11 B50,2013-03-14 05:32:00,
2013-03-13 22:35:00,49.5,44.7,30.24,ESE,108,0.9,0.0,83,0.00,,,0.00,WeatherCatV1.15B25,2013-03-14 05:35:00,
2013-03-13 22:37:00,52.0,47.3,30.24,SSW,202,5.6,5.6,84,0.00,,,0.00,LWC V2.11 B50,2013-03-14 05:37:00,
2013-03-13 22:40:00,49.5,44.7,30.24,ESE,108,0.9,0.0,83,0.00,,,0.00,WeatherCatV1.15B25,2013-03-14 05:40:00,
2013-03-13 22:42:00,52.0,47.3,30.23,SW,225,3.4,3.4,84,0.00,,,0.00,LWC V2.11 B50,2013-03-14 05:42:00,
2013-03-13 22:45:00,49.5,44.7,30.24,ESE,108,0.9,0.0,83,0.00,,,0.00,WeatherCatV1.15B25,2013-03-14 05:45:00,
2013-03-13 22:47:00,51.8,47.1,30.23,South,180,1.8,1.8,84,0.00,,,0.00,LWC V2.11 B50,2013-03-14 05:47:00,
2013-03-13 22:50:00,49.5,44.7,30.24,ESE,108,0.9,0.0,83,0.00,,,0.00,WeatherCatV1.15B25,2013-03-14 05:50:00,
2013-03-13 22:52:00,51.8,47.1,30.23,WSW,247,3.1,3.1,84,0.00,,,0.00,LWC V2.11 B50,2013-03-14 05:52:00,
2013-03-13 22:55:00,49.5,44.7,30.24,ESE,108,0.9,0.0,83,0.00,,,0.00,WeatherCatV1.15B25,2013-03-14 05:55:00,
2013-03-13 22:57:00,51.6,46.9,30.23,SSW,202,3.8,5.1,84,0.00,,,0.00,LWC V2.11 B50,2013-03-14 05:57:00,
2013-03-13 23:00:00,49.5,44.7,30.24,ESE,108,0.9,0.0,83,0.00,,,0.00,WeatherCatV1.15B25,2013-03-14 06:00:00,
2013-03-13 23:02:00,51.6,46.9,30.23,SSW,202,2.9,2.9,84,0.00,,,0.00,LWC V2.11 B50,2013-03-14 06:02:00,
2013-03-13 23:05:00,49.5,44.7,30.24,ESE,108,0.9,0.0,83,0.00,,,0.00,WeatherCatV1.15B25,2013-03-14 06:05:00,
2013-03-13 23:07:00,51.6,46.9,30.23,SSE,157,0.0,2.0,84,0.00,,,0.00,LWC V2.11 B50,2013-03-14 06:07:00,
2013-03-13 23:10:00,49.5,44.7,30.24,ESE,108,0.9,0.0,83,0.00,,,0.00,WeatherCatV1.15B25,2013-03-14 06:10:00,
2013-03-13 23:12:00,51.6,46.9,30.23,SSE,157,0.0,0.0,84,0.00,,,0.00,LWC V2.11 B50,2013-03-14 06:12:00,
2013-03-13 23:15:00,49.5,44.7,30.24,ESE,108,0.9,0.0,83,0.00,,,0.00,WeatherCatV1.15B25,2013-03-14 06:15:00,
2013-03-13 23:17:00,51.6,46.9,30.23,South,180,0.0,0.0,84,0.00,,,0.00,LWC V2.11 B50,2013-03-14 06:17:00,
2013-03-13 23:20:00,49.5,44.7,30.24,ESE,108,0.9,0.0,83,0.00,,,0.00,WeatherCatV1.15B25,2013-03-14 06:20:00,
2013-03-13 23:22:00,51.4,46.7,30.23,ENE,67,0.0,0.0,84,0.00,,,0.00,LWC V2.11 B50,2013-03-14 06:22:00,
2013-03-13 23:25:00,49.5,44.7,30.24,ESE,108,0.9,0.0,83,0.00,,,0.00,WeatherCatV1.15B25,2013-03-14 06:25:00,
2013-03-13 23:27:00,51.4,46.7,30.23,SE,135,0.0,0.0,84,0.00,,,0.00,LWC V2.11 B50,2013-03-14 06:27:00,
2013-03-13 23:30:00,49.5,44.7,30.24,ESE,108,0.9,0.0,83,0.00,,,0.00,WeatherCatV1.15B25,2013-03-14 06:30:00,
2013-03-13 23:32:00,51.4,46.7,30.23,SSE,157,0.9,0.9,84,0.00,,,0.00,LWC V2.11 B50,2013-03-14 06:32:00,
2013-03-13 23:35:00,49.5,44.7,30.24,ESE,108,0.9,0.0,83,0.00,,,0.00,WeatherCatV1.15B25,2013-03-14 06:35:00,
2013-03-13 23:37:00,51.4,46.7,30.23,SW,225,0.0,0.0,84,0.00,,,0.00,LWC V2.11 B50,2013-03-14 06:37:00,
2013-03-13 23:40:00,49.5,44.7,30.24,ESE,108,0.9,0.0,83,0.00,,,0.00,WeatherCatV1.15B25,2013-03-14 06:40:00,
2013-03-13 23:43:00,51.4,46.7,30.23,South,180,0.0,0.0,84,0.00,,,0.00,LWC V2.11 B50,2013-03-14 06:43:00,
2013-03-13 23:45:00,49.5,44.7,30.24,ESE,108,0.9,0.0,83,0.00,,,0.00,WeatherCatV1.15B25,2013-03-14 06:45:00,
2013-03-13 23:48:00,51.4,46.7,30.23,South,180,0.0,0.0,84,0.00,,,0.00,LWC V2.11 B50,2013-03-14 06:48:00,
2013-03-13 23:50:00,49.5,44.7,30.24,ESE,108,0.9,0.0,83,0.00,,,0.00,WeatherCatV1.15B25,2013-03-14 06:50:00,
2013-03-13 23:53:00,51.3,46.5,30.22,North,0,0.0,0.0,84,0.00,,,0.00,LWC V2.11 B50,2013-03-14 06:53:00,
2013-03-13 23:55:00,49.5,44.7,30.24,ESE,108,0.9,0.0,83,0.00,,,0.00,WeatherCatV1.15B25,2013-03-14 06:55:00,
2013-03-13 23:58:00,51.3,46.5,30.22,WSW,247,1.1,1.1,84,0.00,,,0.00,LWC V2.11 B50,2013-03-14 06:58:00,